createdAt,value
2022-10-03T00:01:54.261Z,102456.81
2022-10-03T00:04:40.987Z,102456.63
2022-10-03T00:07:33.097Z,102422.22
2022-10-03T00:10:09.588Z,102462.25
2022-10-03T00:12:48.042Z,102465.28
2022-10-03T00:15:34.505Z,102461.88
2022-10-03T00:18:22.715Z,102465.25
2022-10-03T00:21:07.586Z,102460.91
2022-10-03T00:23:49.624Z,102472.41
2022-10-03T00:27:08.069Z,102473.94
2022-10-03T00:30:01.335Z,102466.72
2022-10-03T00:32:43.357Z,102475.06
2022-10-03T00:35:51.135Z,102473.41
2022-10-03T00:38:20.283Z,102483.25
2022-10-03T00:41:09.216Z,102491.97
2022-10-03T00:44:11.897Z,102491.66
2022-10-03T00:47:02.731Z,102490.34
2022-10-03T00:49:57.803Z,102494.34
2022-10-03T00:52:53.974Z,102491.69
2022-10-03T00:55:23.251Z,102494.41
2022-10-03T00:58:10.668Z,102504.47
2022-10-03T01:00:38.182Z,102500.63
2022-10-03T01:03:35.289Z,102505.03
2022-10-03T01:06:21.223Z,102497.84
2022-10-03T01:09:16.091Z,102489.81
2022-10-03T01:12:08.701Z,102476.88
2022-10-03T01:14:54.829Z,102505.94
2022-10-03T01:17:31.863Z,102494.41
2022-10-03T01:20:21.955Z,102507.81
2022-10-03T01:22:59.608Z,102498.47
2022-10-03T01:25:25.939Z,102501.31
2022-10-03T01:28:32.183Z,102496.63
2022-10-03T01:31:02.601Z,102490.25
2022-10-03T01:33:59.563Z,102475.81
2022-10-03T01:36:39.943Z,102496.44
2022-10-03T01:39:15.883Z,102495.44
2022-10-03T01:41:50.027Z,102510.31
2022-10-03T01:44:31.695Z,102506.16
2022-10-03T01:47:24.766Z,102501.06
2022-10-03T01:50:21.628Z,102511.97
2022-10-03T01:52:58.727Z,102511.78
2022-10-03T01:55:40.123Z,102492.78
2022-10-03T01:58:11.602Z,102472.69
2022-10-03T02:00:47.370Z,102507.34
2022-10-03T02:03:25.255Z,102505.00
2022-10-03T02:06:06.693Z,102473.25
2022-10-03T02:09:03.514Z,102512.47
2022-10-03T02:11:44.372Z,102506.59
2022-10-03T02:14:38.071Z,102512.41
2022-10-03T02:17:14.234Z,102520.94
2022-10-03T02:19:57.222Z,102494.91
2022-10-03T02:22:34.115Z,102519.34
2022-10-03T02:25:32.660Z,102529.25
2022-10-03T02:28:24.576Z,102512.59
2022-10-03T02:31:14.678Z,102516.81
2022-10-03T02:33:44.327Z,102518.56
2022-10-03T02:36:41.727Z,102520.31
2022-10-03T02:39:33.059Z,102515.59
2022-10-03T02:42:33.412Z,102522.25
2022-10-03T02:45:18.772Z,102529.44
2022-10-03T02:48:08.419Z,102522.72
2022-10-03T02:51:04.292Z,102527.72
2022-10-03T02:54:11.271Z,102522.13
2022-10-03T02:56:59.669Z,102526.31
2022-10-03T02:59:55.223Z,102525.78
2022-10-03T03:02:33.871Z,102531.53
2022-10-03T03:05:38.037Z,102526.63
2022-10-03T03:08:26.555Z,102531.28
2022-10-03T03:11:30.112Z,102535.94
2022-10-03T03:14:08.841Z,102530.06
2022-10-03T03:16:44.630Z,102515.25
2022-10-03T03:19:15.323Z,102522.00
2022-10-03T03:22:11.084Z,102535.63
2022-10-03T03:24:46.223Z,102534.44
2022-10-03T03:27:27.300Z,102528.69
2022-10-03T03:30:20.463Z,102534.44
2022-10-03T03:33:02.900Z,102536.09
2022-10-03T03:35:46.423Z,102533.72
2022-10-03T03:38:19.047Z,102534.16
2022-10-03T03:41:02.331Z,102527.22
2022-10-03T03:43:41.553Z,102522.97
2022-10-03T03:46:40.185Z,102534.31
2022-10-03T03:49:20.237Z,102519.91
2022-10-03T03:52:12.536Z,102546.13
2022-10-03T03:54:55.922Z,102538.78
2022-10-03T03:57:33.016Z,102535.28
2022-10-03T04:00:23.436Z,102539.25
2022-10-03T04:03:22.174Z,102543.03
2022-10-03T04:05:54.243Z,102542.09
2022-10-03T04:08:38.618Z,102537.66
2022-10-03T04:11:29.052Z,102544.44
2022-10-03T04:14:21.272Z,102551.13
2022-10-03T04:17:31.350Z,102549.88
2022-10-03T04:20:22.508Z,102538.22
2022-10-03T04:23:12.383Z,102525.00
2022-10-03T04:25:50.182Z,102536.56
2022-10-03T04:28:35.085Z,102545.16
2022-10-03T04:31:28.236Z,102543.03
2022-10-03T04:34:23.325Z,102556.63
2022-10-03T04:37:15.254Z,102548.16
2022-10-03T04:39:48.481Z,102549.53
2022-10-03T04:42:27.183Z,102556.69
2022-10-03T04:45:02.459Z,102549.06
2022-10-03T04:47:42.764Z,102550.38
2022-10-03T04:50:12.241Z,102562.31
2022-10-03T04:52:41.693Z,102565.53
2022-10-03T04:55:18.173Z,102551.38
2022-10-03T04:57:50.750Z,102569.66
2022-10-03T05:00:33.897Z,102544.94
2022-10-03T05:03:22.481Z,102568.41
2022-10-03T05:05:57.502Z,102563.19
2022-10-03T05:08:43.969Z,102540.34
2022-10-03T05:11:24.608Z,102561.44
2022-10-03T05:14:08.735Z,102526.00
2022-10-03T05:17:01.905Z,102550.34
2022-10-03T05:19:33.403Z,102553.00
2022-10-03T05:22:32.789Z,102556.38
2022-10-03T05:25:21.259Z,102551.75
2022-10-03T05:28:06.005Z,102568.56
2022-10-03T05:30:41.643Z,102564.16
2022-10-03T05:33:31.547Z,102565.72
2022-10-03T05:36:16.013Z,102531.66
2022-10-03T05:39:07.297Z,102560.69
2022-10-03T05:41:37.666Z,102551.59
2022-10-03T05:44:15.600Z,102543.34
2022-10-03T05:46:58.982Z,102544.03
2022-10-03T05:49:43.634Z,102556.78
2022-10-03T05:52:39.213Z,102554.97
2022-10-03T05:55:30.601Z,102559.06
2022-10-03T05:58:22.374Z,102571.97
2022-10-03T06:00:51.881Z,102580.25
2022-10-03T06:03:38.958Z,102584.91
2022-10-03T06:06:18.102Z,102560.06
2022-10-03T06:09:22.431Z,102573.06
2022-10-03T06:12:10.248Z,102576.97
2022-10-03T06:14:57.824Z,102574.28
2022-10-03T06:17:47.360Z,102575.69
2022-10-03T06:20:22.530Z,102586.44
2022-10-03T06:23:07.653Z,102578.66
2022-10-03T06:25:42.998Z,102580.72
2022-10-03T06:28:36.744Z,102585.47
2022-10-03T06:31:37.869Z,102578.97
2022-10-03T06:34:55.610Z,102590.41
2022-10-03T06:37:49.645Z,102589.81
2022-10-03T06:40:48.341Z,102591.16
2022-10-03T06:43:45.515Z,102586.50
2022-10-03T06:46:29.985Z,102591.41
2022-10-03T06:49:21.819Z,102600.00
2022-10-03T06:52:00.447Z,102598.84
2022-10-03T06:54:54.723Z,102586.00
2022-10-03T06:57:45.948Z,102586.31
2022-10-03T07:00:48.189Z,102603.13
2022-10-03T07:03:37.759Z,102599.75
2022-10-03T07:06:15.810Z,102607.16
2022-10-03T07:08:54.924Z,102608.00
2022-10-03T07:11:59.381Z,102608.69
2022-10-03T07:14:59.534Z,102615.41
2022-10-03T07:17:39.045Z,102628.66
2022-10-03T07:20:20.038Z,102620.63
2022-10-03T07:23:08.570Z,102623.66
2022-10-03T07:25:52.791Z,102626.88
2022-10-03T07:28:28.757Z,102634.63
2022-10-03T07:31:16.507Z,102624.63
2022-10-03T07:33:49.062Z,102624.97
2022-10-03T07:36:51.570Z,102622.16
2022-10-03T07:39:40.717Z,102626.03
2022-10-03T07:42:15.778Z,102622.34
2022-10-03T07:45:11.560Z,102625.06
2022-10-03T07:47:58.607Z,102623.56
2022-10-03T07:51:07.088Z,102603.75
2022-10-03T07:54:20.559Z,102627.84
2022-10-03T07:57:15.933Z,102622.28
2022-10-03T08:00:08.482Z,102634.34
2022-10-03T08:03:02.458Z,102633.00
2022-10-03T08:05:43.647Z,102633.53
2022-10-03T08:08:52.962Z,102639.25
2022-10-03T08:12:05.874Z,102634.44
2022-10-03T08:14:53.743Z,102640.97
2022-10-03T08:17:35.377Z,102637.00
2022-10-03T08:20:17.454Z,102636.03
2022-10-03T08:23:20.059Z,102639.44
2022-10-03T08:26:12.290Z,102636.44
2022-10-03T08:29:08.751Z,102641.72
2022-10-03T08:31:59.783Z,102643.25
2022-10-03T08:34:38.492Z,102646.09
2022-10-03T08:37:04.896Z,102646.94
2022-10-03T08:39:56.546Z,102620.97
2022-10-03T08:42:46.631Z,102638.56
2022-10-03T08:45:44.019Z,102650.09
2022-10-03T08:48:34.927Z,102630.22
2022-10-03T08:51:40.538Z,102619.56
2022-10-03T08:54:25.096Z,102601.06
2022-10-03T08:57:19.380Z,102617.00
2022-10-03T09:00:23.691Z,102611.16
2022-10-03T09:03:36.777Z,102627.47
2022-10-03T09:06:52.687Z,102625.94
2022-10-03T09:09:58.287Z,102625.84
2022-10-03T09:12:56.354Z,102608.94
2022-10-03T09:15:37.910Z,102624.69
2022-10-03T09:18:23.093Z,102622.00
2022-10-03T09:21:17.807Z,102622.09
2022-10-03T09:24:14.270Z,102622.09
2022-10-03T09:26:52.885Z,102615.69
2022-10-03T09:29:31.612Z,102615.00
2022-10-03T09:32:00.995Z,102612.97
2022-10-03T09:35:07.324Z,102615.16
2022-10-03T09:37:49.263Z,102617.88
2022-10-03T09:40:42.063Z,102620.50
2022-10-03T09:43:26.847Z,102610.59
2022-10-03T09:46:14.090Z,102599.28
2022-10-03T09:49:21.998Z,102600.78
2022-10-03T09:52:26.231Z,102601.41
2022-10-03T09:55:20.423Z,102606.22
2022-10-03T09:58:11.719Z,102602.28
2022-10-03T10:01:11.652Z,102605.56
2022-10-03T10:03:46.985Z,102608.78
2022-10-03T10:06:28.239Z,102606.13
2022-10-03T10:09:13.282Z,102607.22
2022-10-03T10:12:00.954Z,102605.66
2022-10-03T10:14:48.691Z,102610.97
2022-10-03T10:17:45.065Z,102617.75
2022-10-03T10:20:36.088Z,102613.06
2022-10-03T10:23:25.771Z,102611.97
2022-10-03T10:26:10.958Z,102614.00
2022-10-03T10:29:11.500Z,102597.75
2022-10-03T10:31:59.332Z,102613.50
2022-10-03T10:34:44.198Z,102608.66
2022-10-03T10:37:33.285Z,102609.16
2022-10-03T10:40:28.528Z,102605.25
2022-10-03T10:43:33.351Z,102596.00
2022-10-03T10:46:21.043Z,102605.94
2022-10-03T10:49:06.230Z,102606.16
2022-10-03T10:51:57.212Z,102600.25
2022-10-03T10:54:38.832Z,102603.47
2022-10-03T10:57:30.419Z,102604.63
2022-10-03T11:00:15.912Z,102603.47
2022-10-03T11:03:19.842Z,102602.47
2022-10-03T11:06:17.605Z,102608.88
2022-10-03T11:08:55.491Z,102614.09
2022-10-03T11:12:07.797Z,102606.53
2022-10-03T11:14:53.065Z,102615.16
2022-10-03T11:17:28.627Z,102612.28
2022-10-03T11:20:28.078Z,102606.16
2022-10-03T11:23:12.487Z,102609.47
2022-10-03T11:26:03.919Z,102609.47
2022-10-03T11:29:32.602Z,102607.41
2022-10-03T11:32:17.810Z,102597.97
2022-10-03T11:35:08.739Z,102601.84
2022-10-03T11:37:41.443Z,102597.31
2022-10-03T11:40:17.718Z,102582.88
2022-10-03T11:43:02.584Z,102596.63
2022-10-03T11:45:45.014Z,102587.94
2022-10-03T11:48:56.321Z,102602.75
2022-10-03T11:52:00.296Z,102598.41
2022-10-03T11:54:32.756Z,102593.28
2022-10-03T11:57:17.273Z,102590.50
2022-10-03T12:00:05.287Z,102593.53
2022-10-03T12:02:55.364Z,102584.00
2022-10-03T12:05:43.472Z,102594.50
2022-10-03T12:08:40.851Z,102597.31
2022-10-03T12:11:24.002Z,102590.81
2022-10-03T12:14:18.857Z,102585.44
2022-10-03T12:16:48.321Z,102592.47
2022-10-03T12:19:42.480Z,102582.94
2022-10-03T12:22:18.731Z,102584.34
2022-10-03T12:24:48.159Z,102584.00
2022-10-03T12:27:40.815Z,102583.44
2022-10-03T12:30:16.158Z,102571.53
2022-10-03T12:33:00.931Z,102572.94
2022-10-03T12:35:36.425Z,102570.06
2022-10-03T12:38:21.083Z,102574.16
2022-10-03T12:41:24.249Z,102579.72
2022-10-03T12:44:16.880Z,102553.69
2022-10-03T12:46:51.863Z,102578.97
2022-10-03T12:49:51.366Z,102563.00
2022-10-03T12:52:33.632Z,102566.53
2022-10-03T12:55:04.947Z,102559.81
2022-10-03T12:57:52.743Z,102568.84
2022-10-03T13:00:27.694Z,102572.38
2022-10-03T13:03:03.182Z,102574.69
2022-10-03T13:05:37.785Z,102529.44
2022-10-03T13:08:28.178Z,102566.63
2022-10-03T13:11:03.497Z,102553.44
2022-10-03T13:13:57.312Z,102559.25
2022-10-03T13:16:44.102Z,102555.38
2022-10-03T13:19:18.787Z,102551.44
2022-10-03T13:22:03.565Z,102555.53
2022-10-03T13:24:39.677Z,102552.81
2022-10-03T13:27:17.928Z,102554.31
2022-10-03T13:29:50.840Z,102543.09
2022-10-03T13:32:22.666Z,102553.56
2022-10-03T13:34:53.068Z,102553.56
2022-10-03T13:37:52.317Z,102550.88
2022-10-03T13:40:19.788Z,102550.22
2022-10-03T13:42:53.451Z,102546.44
2022-10-03T13:45:26.333Z,102544.34
2022-10-03T13:48:06.551Z,102513.72
2022-10-03T13:51:16.272Z,102536.09
2022-10-03T13:54:03.014Z,102536.09
2022-10-03T13:56:45.115Z,102524.69
2022-10-03T13:59:47.948Z,102505.63
2022-10-03T14:02:27.602Z,102531.34
2022-10-03T14:05:18.810Z,102523.81
2022-10-03T14:08:07.318Z,102507.50
2022-10-03T14:11:00.116Z,102526.34
2022-10-03T14:13:39.880Z,102528.84
2022-10-03T14:16:39.919Z,102523.44
2022-10-03T14:19:15.384Z,102528.03
2022-10-03T14:21:48.453Z,102519.94
2022-10-03T14:24:59.927Z,102522.78
2022-10-03T14:27:40.933Z,102518.63
2022-10-03T14:30:18.452Z,102514.25
2022-10-03T14:32:56.642Z,102509.69
2022-10-03T14:35:23.131Z,102506.00
2022-10-03T14:38:02.906Z,102507.84
2022-10-03T14:40:46.195Z,102495.94
2022-10-03T14:43:31.773Z,102497.00
2022-10-03T14:46:00.596Z,102487.22
2022-10-03T14:48:30.049Z,102486.66
2022-10-03T14:51:08.978Z,102482.75
2022-10-03T14:53:37.383Z,102477.34
2022-10-03T14:56:08.441Z,102480.31
2022-10-03T14:58:45.997Z,102475.56
2022-10-03T15:01:19.008Z,102476.03
2022-10-03T15:03:56.872Z,102477.69
2022-10-03T15:06:44.797Z,102476.88
2022-10-03T15:09:16.984Z,102472.47
2022-10-03T15:11:48.800Z,102442.03
2022-10-03T15:14:15.373Z,102466.53
2022-10-03T15:16:49.391Z,102462.34
2022-10-03T15:19:26.074Z,102470.44
2022-10-03T15:21:53.449Z,102467.66
2022-10-03T15:24:27.965Z,102469.72
2022-10-03T15:27:01.562Z,102472.41
2022-10-03T15:29:31.175Z,102468.88
2022-10-03T15:31:58.549Z,102468.25
2022-10-03T15:34:31.981Z,102459.13
2022-10-03T15:37:07.071Z,102431.13
2022-10-03T15:39:43.741Z,102455.13
2022-10-03T15:42:10.064Z,102469.91
2022-10-03T15:44:39.713Z,102454.50
2022-10-03T15:47:12.769Z,102426.56
2022-10-03T15:50:00.955Z,102450.31
2022-10-03T15:52:40.112Z,102455.91
2022-10-03T15:55:13.857Z,102455.91
2022-10-03T15:57:45.290Z,102450.06
2022-10-03T16:00:26.176Z,102447.56
2022-10-03T16:03:32.391Z,102448.13
2022-10-03T16:06:10.591Z,102452.03
2022-10-03T16:08:59.645Z,102437.63
2022-10-03T16:11:34.754Z,102431.44
2022-10-03T16:14:14.717Z,102414.72
2022-10-03T16:16:55.192Z,102430.31
2022-10-03T16:19:27.676Z,102429.66
2022-10-03T16:22:12.968Z,102405.63
2022-10-03T16:25:01.341Z,102420.94
2022-10-03T16:27:31.558Z,102412.78
2022-10-03T16:30:17.010Z,102409.91
2022-10-03T16:32:53.870Z,102410.09
2022-10-03T16:35:30.685Z,102394.31
2022-10-03T16:37:58.023Z,102419.09
2022-10-03T16:40:26.846Z,102422.97
2022-10-03T16:42:58.862Z,102415.41
2022-10-03T16:45:31.189Z,102402.13
2022-10-03T16:48:21.439Z,102404.69
2022-10-03T16:50:52.549Z,102398.41
2022-10-03T16:53:22.270Z,102402.75
2022-10-03T16:55:54.473Z,102363.88
2022-10-03T16:58:33.328Z,102395.78
2022-10-03T17:01:26.339Z,102407.50
2022-10-03T17:04:15.715Z,102425.88
2022-10-03T17:06:46.916Z,102370.97
2022-10-03T17:09:39.621Z,102404.41
2022-10-03T17:12:14.120Z,102407.19
2022-10-03T17:14:42.485Z,102403.66
2022-10-03T17:17:28.144Z,102398.34
2022-10-03T17:20:18.135Z,102415.34
2022-10-03T17:22:50.838Z,102409.28
2022-10-03T17:25:18.175Z,102399.03
2022-10-03T17:27:48.123Z,102400.53
2022-10-03T17:30:29.507Z,102402.38
2022-10-03T17:33:08.366Z,102391.56
2022-10-03T17:35:43.734Z,102409.50
2022-10-03T17:38:44.958Z,102397.47
2022-10-03T17:41:27.668Z,102393.78
2022-10-03T17:44:18.065Z,102402.50
2022-10-03T17:47:02.076Z,102393.56
2022-10-03T17:49:43.101Z,102403.22
2022-10-03T17:52:16.340Z,102399.22
2022-10-03T17:54:46.881Z,102390.19
2022-10-03T17:57:29.366Z,102394.66
2022-10-03T18:00:09.139Z,102387.66
2022-10-03T18:02:53.455Z,102391.03
2022-10-03T18:05:25.833Z,102394.38
2022-10-03T18:07:54.479Z,102371.34
2022-10-03T18:10:30.494Z,102382.72
2022-10-03T18:13:00.377Z,102394.94
2022-10-03T18:15:41.049Z,102390.78
2022-10-03T18:18:36.444Z,102382.09
2022-10-03T18:21:15.204Z,102376.53
2022-10-03T18:24:12.715Z,102384.25
2022-10-03T18:26:46.552Z,102368.38
2022-10-03T18:29:18.980Z,102372.16
2022-10-03T18:31:52.946Z,102373.38
2022-10-03T18:34:35.016Z,102365.00
2022-10-03T18:37:35.629Z,102361.31
2022-10-03T18:40:05.734Z,102363.44
2022-10-03T18:42:32.523Z,102373.69
2022-10-03T18:45:00.960Z,102350.56
2022-10-03T18:47:35.657Z,102360.25
2022-10-03T18:50:15.542Z,102363.59
2022-10-03T18:52:53.596Z,102347.19
2022-10-03T18:55:29.322Z,102336.81
2022-10-03T18:58:05.844Z,102357.75
2022-10-03T19:00:41.893Z,102352.19
2022-10-03T19:03:16.167Z,102347.34
2022-10-03T19:05:49.027Z,102357.09
2022-10-03T19:08:27.057Z,102365.09
2022-10-03T19:11:17.933Z,102360.91
2022-10-03T19:14:02.206Z,102346.34
2022-10-03T19:17:14.044Z,102347.22
2022-10-03T19:20:00.433Z,102346.22
2022-10-03T19:22:59.938Z,102351.34
2022-10-03T19:25:27.980Z,102344.66
2022-10-03T19:28:01.876Z,102303.34
2022-10-03T19:30:31.400Z,102338.66
2022-10-03T19:33:14.142Z,102330.91
2022-10-03T19:35:46.789Z,102341.97
2022-10-03T19:38:17.540Z,102335.28
2022-10-03T19:40:55.803Z,102349.03
2022-10-03T19:43:36.224Z,102346.69
2022-10-03T19:46:15.073Z,102344.00
2022-10-03T19:49:00.850Z,102350.75
2022-10-03T19:51:27.846Z,102357.78
2022-10-03T19:54:00.016Z,102349.72
2022-10-03T19:56:31.025Z,102356.97
2022-10-03T19:59:15.188Z,102358.78
2022-10-03T20:01:44.650Z,102344.56
2022-10-03T20:04:12.528Z,102356.69
2022-10-03T20:06:45.680Z,102354.16
2022-10-03T20:09:30.657Z,102351.34
2022-10-03T20:12:05.549Z,102333.44
2022-10-03T20:14:35.767Z,102346.31
2022-10-03T20:17:14.503Z,102327.94
2022-10-03T20:20:04.631Z,102347.19
2022-10-03T20:22:36.351Z,102331.56
2022-10-03T20:25:05.799Z,102322.56
2022-10-03T20:27:48.620Z,102333.44
2022-10-03T20:30:35.706Z,102345.31
2022-10-03T20:33:03.303Z,102349.00
2022-10-03T20:35:45.157Z,102347.69
2022-10-03T20:38:37.796Z,102349.19
2022-10-03T20:41:15.954Z,102334.13
2022-10-03T20:44:08.388Z,102357.28
2022-10-03T20:46:40.627Z,102337.56
2022-10-03T20:49:09.685Z,102357.16
2022-10-03T20:51:54.546Z,102344.72
2022-10-03T20:54:23.541Z,102348.59
2022-10-03T20:56:52.118Z,102351.09
2022-10-03T20:59:26.239Z,102351.59
2022-10-03T21:02:18.961Z,102352.13
2022-10-03T21:05:19.991Z,102354.47
2022-10-03T21:07:56.956Z,102347.94
2022-10-03T21:10:31.990Z,102342.06
2022-10-03T21:13:08.218Z,102341.53
2022-10-03T21:15:40.385Z,102341.53
2022-10-03T21:18:17.422Z,102330.50
2022-10-03T21:20:45.903Z,102324.50
2022-10-03T21:23:24.388Z,102336.03
2022-10-03T21:25:55.180Z,102331.53
2022-10-03T21:28:27.219Z,102324.16
2022-10-03T21:31:05.283Z,102337.38
2022-10-03T21:33:51.992Z,102318.28
2022-10-03T21:36:26.663Z,102306.03
2022-10-03T21:39:03.079Z,102316.91
2022-10-03T21:41:41.995Z,102311.34
2022-10-03T21:44:33.805Z,102306.34
2022-10-03T21:47:16.960Z,102296.63
2022-10-03T21:49:57.718Z,102290.78
2022-10-03T21:52:45.709Z,102284.88
2022-10-03T21:55:50.711Z,102278.72
2022-10-03T21:58:15.207Z,102281.53
2022-10-03T22:01:25.786Z,102267.81
2022-10-03T22:04:02.905Z,102270.34
2022-10-03T22:06:39.096Z,102272.53
2022-10-03T22:09:13.470Z,102271.88
2022-10-03T22:11:55.008Z,102270.66
2022-10-03T22:14:46.207Z,102266.31
2022-10-03T22:17:29.240Z,102257.97
2022-10-03T22:20:19.894Z,102258.63
2022-10-03T22:22:57.647Z,102267.34
2022-10-03T22:25:58.744Z,102271.34
2022-10-03T22:28:46.966Z,102265.13
2022-10-03T22:31:41.025Z,102266.31
2022-10-03T22:34:11.246Z,102269.69
2022-10-03T22:36:40.134Z,102261.31
2022-10-03T22:39:12.577Z,102260.97
2022-10-03T22:41:41.736Z,102245.22
2022-10-03T22:44:10.625Z,102237.19
2022-10-03T22:46:41.376Z,102238.34
2022-10-03T22:49:18.343Z,102237.50
2022-10-03T22:51:46.519Z,102239.50
2022-10-03T22:54:16.119Z,102241.03
2022-10-03T22:56:47.034Z,102228.47
2022-10-03T22:59:22.883Z,102234.50
2022-10-03T23:01:51.958Z,102249.06
2022-10-03T23:04:28.245Z,102240.31
2022-10-03T23:07:09.247Z,102233.31
2022-10-03T23:09:46.954Z,102240.50
2022-10-03T23:12:15.526Z,102237.66
2022-10-03T23:14:48.082Z,102230.81
2022-10-03T23:17:23.435Z,102238.53
2022-10-03T23:20:13.226Z,102233.16
2022-10-03T23:22:43.887Z,102229.13
2022-10-03T23:25:24.697Z,102212.03
2022-10-03T23:28:31.738Z,102205.56
2022-10-03T23:30:58.237Z,102223.59
2022-10-03T23:33:33.894Z,102217.41
2022-10-03T23:36:10.491Z,102154.03
2022-10-03T23:38:36.901Z,102211.53
2022-10-03T23:41:05.959Z,102203.00
2022-10-03T23:43:45.756Z,102202.81
2022-10-03T23:46:18.742Z,102173.91
2022-10-03T23:48:49.251Z,102197.63
2022-10-03T23:51:22.306Z,102171.56
2022-10-03T23:53:52.329Z,102160.19
2022-10-03T23:56:21.717Z,102195.28
2022-10-03T23:59:04.998Z,102192.41
